createdAt,value
2023-05-16T00:00:21.194Z,13.10
2023-05-16T00:01:43.284Z,13.10
2023-05-16T00:03:06.396Z,13.10
2023-05-16T00:04:28.648Z,13.10
2023-05-16T00:05:50.851Z,13.10
2023-05-16T00:07:12.928Z,13.10
2023-05-16T00:08:35.658Z,13.10
2023-05-16T00:09:57.730Z,13.10
2023-05-16T00:11:19.781Z,13.10
2023-05-16T00:12:41.889Z,13.10
2023-05-16T00:14:04.009Z,13.10
2023-05-16T00:15:26.055Z,13.10
2023-05-16T00:16:48.192Z,13.10
2023-05-16T00:18:14.716Z,13.10
2023-05-16T00:19:37.194Z,13.10
2023-05-16T00:20:59.623Z,13.00
2023-05-16T00:22:21.812Z,13.00
2023-05-16T00:23:44.247Z,13.00
2023-05-16T00:25:08.760Z,13.00
2023-05-16T00:26:30.980Z,13.00
2023-05-16T00:27:53.030Z,13.00
2023-05-16T00:29:15.233Z,13.00
2023-05-16T00:30:37.423Z,13.00
2023-05-16T00:31:59.568Z,13.10
2023-05-16T00:33:21.708Z,13.00
2023-05-16T00:34:44.008Z,13.10
2023-05-16T00:36:06.358Z,13.10
2023-05-16T00:37:28.581Z,13.10
2023-05-16T00:38:50.744Z,13.10
2023-05-16T00:40:13.208Z,13.00
2023-05-16T00:41:35.361Z,13.00
2023-05-16T00:42:57.396Z,13.00
2023-05-16T00:44:19.448Z,13.00
2023-05-16T00:45:41.485Z,13.00
2023-05-16T00:47:04.288Z,13.00
2023-05-16T00:48:26.672Z,13.00
2023-05-16T00:49:48.974Z,13.00
2023-05-16T00:51:11.376Z,13.00
2023-05-16T00:52:33.748Z,12.90
2023-05-16T00:53:57.403Z,12.90
2023-05-16T00:55:19.563Z,12.90
2023-05-16T00:56:41.726Z,12.90
2023-05-16T00:58:05.599Z,12.90
2023-05-16T00:59:27.955Z,12.90
2023-05-16T01:00:50.462Z,12.90
2023-05-16T01:02:13.778Z,12.80
2023-05-16T01:03:37.392Z,12.90
2023-05-16T01:05:00.371Z,12.80
2023-05-16T01:06:22.550Z,12.80
2023-05-16T01:07:44.875Z,12.80
2023-05-16T01:09:10.165Z,12.80
2023-05-16T01:10:50.839Z,12.80
2023-05-16T01:12:28.100Z,12.80
2023-05-16T01:14:34.917Z,12.80
2023-05-16T01:16:04.771Z,12.80
2023-05-16T01:17:42.688Z,12.80
2023-05-16T01:19:26.291Z,12.80
2023-05-16T01:21:00.471Z,12.80
2023-05-16T01:22:51.324Z,12.80
2023-05-16T01:24:34.213Z,12.80
2023-05-16T01:25:58.335Z,12.80
2023-05-16T01:27:21.540Z,12.80
2023-05-16T01:28:46.899Z,12.80
2023-05-16T01:30:17.910Z,12.70
2023-05-16T01:31:40.000Z,12.80
2023-05-16T01:33:02.158Z,12.70
2023-05-16T01:34:24.227Z,12.70
2023-05-16T01:36:01.492Z,12.70
2023-05-16T01:37:38.738Z,12.70
2023-05-16T01:39:19.262Z,12.70
2023-05-16T01:40:52.131Z,12.70
2023-05-16T01:42:15.436Z,12.70
2023-05-16T01:43:48.342Z,12.70
2023-05-16T01:45:26.497Z,12.70
2023-05-16T01:46:55.330Z,12.70
2023-05-16T01:48:22.207Z,12.70
2023-05-16T01:50:04.905Z,12.60
2023-05-16T01:51:33.317Z,12.60
2023-05-16T01:53:09.073Z,12.60
2023-05-16T01:54:33.131Z,12.60
2023-05-16T01:56:00.206Z,12.50
2023-05-16T01:57:26.252Z,12.50
2023-05-16T01:58:49.987Z,12.50
2023-05-16T02:00:13.217Z,12.50
2023-05-16T02:01:35.754Z,12.50
2023-05-16T02:02:57.876Z,12.50
2023-05-16T02:04:20.043Z,12.50
2023-05-16T02:05:42.252Z,12.40
2023-05-16T02:07:04.600Z,12.40
2023-05-16T02:08:28.188Z,12.30
2023-05-16T02:09:50.352Z,12.30
2023-05-16T02:11:12.372Z,12.30
2023-05-16T02:12:34.417Z,12.30
2023-05-16T02:13:56.446Z,12.20
2023-05-16T02:15:19.146Z,12.20
2023-05-16T02:16:41.229Z,12.10
2023-05-16T02:18:03.387Z,12.10
2023-05-16T02:19:25.482Z,12.10
2023-05-16T02:20:47.610Z,12.10
2023-05-16T02:22:09.761Z,12.10
2023-05-16T02:23:32.180Z,12.10
2023-05-16T02:24:54.393Z,12.00
2023-05-16T02:26:16.490Z,12.00
2023-05-16T02:27:38.546Z,12.00
2023-05-16T02:29:00.713Z,12.00
2023-05-16T02:30:22.769Z,12.00
2023-05-16T02:31:44.862Z,12.00
2023-05-16T02:33:06.989Z,12.00
2023-05-16T02:34:29.015Z,12.00
2023-05-16T02:35:51.074Z,12.00
2023-05-16T02:37:13.533Z,12.00
2023-05-16T02:38:35.782Z,12.00
2023-05-16T02:39:57.823Z,11.90
2023-05-16T02:41:22.336Z,11.90
2023-05-16T02:42:44.468Z,11.90
2023-05-16T02:44:06.508Z,11.90
2023-05-16T02:45:28.868Z,11.80
2023-05-16T02:46:51.244Z,11.80
2023-05-16T02:48:13.445Z,11.80
2023-05-16T02:49:35.672Z,11.70
2023-05-16T02:50:57.755Z,11.70
2023-05-16T02:52:20.361Z,11.70
2023-05-16T02:53:42.424Z,11.60
2023-05-16T02:55:21.063Z,11.60
2023-05-16T02:56:44.623Z,11.50
2023-05-16T02:58:06.698Z,11.50
2023-05-16T02:59:28.758Z,11.50
2023-05-16T03:00:50.800Z,11.40
2023-05-16T03:02:13.201Z,11.40
2023-05-16T03:03:37.196Z,11.40
2023-05-16T03:04:59.412Z,11.30
2023-05-16T03:06:21.814Z,11.30
2023-05-16T03:07:43.960Z,11.30
2023-05-16T03:09:06.031Z,11.30
2023-05-16T03:10:28.134Z,11.30
2023-05-16T03:11:50.183Z,11.20
2023-05-16T03:13:12.329Z,11.20
2023-05-16T03:14:34.400Z,11.30
2023-05-16T03:15:56.646Z,11.20
2023-05-16T03:17:18.710Z,11.20
2023-05-16T03:18:41.355Z,11.20
2023-05-16T03:20:05.237Z,11.20
2023-05-16T03:21:27.310Z,11.20
2023-05-16T03:22:49.530Z,11.10
2023-05-16T03:24:11.618Z,11.20
2023-05-16T03:25:37.746Z,11.20
2023-05-16T03:27:00.193Z,11.20
2023-05-16T03:28:22.307Z,11.20
2023-05-16T03:29:44.341Z,11.30
2023-05-16T03:31:06.454Z,11.30
2023-05-16T03:32:28.707Z,11.40
2023-05-16T03:33:51.278Z,11.40
2023-05-16T03:35:13.403Z,11.50
2023-05-16T03:36:35.913Z,11.50
2023-05-16T03:37:58.013Z,11.60
2023-05-16T03:39:20.109Z,11.60
2023-05-16T03:40:42.203Z,11.70
2023-05-16T03:42:04.483Z,11.70
2023-05-16T03:43:27.159Z,11.70
2023-05-16T03:44:49.181Z,11.80
2023-05-16T03:46:11.308Z,11.80
2023-05-16T03:47:33.729Z,11.80
2023-05-16T03:48:55.781Z,11.90
2023-05-16T03:50:18.206Z,11.90
2023-05-16T03:51:40.309Z,12.00
2023-05-16T03:53:02.359Z,12.00
2023-05-16T03:54:24.405Z,12.10
2023-05-16T03:55:48.616Z,12.20
2023-05-16T03:57:10.950Z,12.30
2023-05-16T03:58:33.017Z,12.30
2023-05-16T03:59:55.026Z,12.30
2023-05-16T04:01:17.064Z,12.40
2023-05-16T04:02:43.980Z,12.40
2023-05-16T04:04:06.232Z,12.50
2023-05-16T04:05:29.520Z,12.50
2023-05-16T04:06:51.839Z,12.60
2023-05-16T04:08:13.926Z,12.60
2023-05-16T04:09:36.021Z,12.60
2023-05-16T04:10:58.138Z,12.70
2023-05-16T04:12:20.184Z,12.70
2023-05-16T04:13:42.327Z,12.70
2023-05-16T04:15:05.666Z,12.70
2023-05-16T04:16:28.083Z,12.70
2023-05-16T04:17:50.274Z,12.70
2023-05-16T04:19:12.626Z,12.70
2023-05-16T04:20:35.314Z,12.70
2023-05-16T04:21:57.427Z,12.70
2023-05-16T04:23:19.483Z,12.70
2023-05-16T04:24:41.647Z,12.80
2023-05-16T04:26:04.663Z,12.70
2023-05-16T04:27:30.612Z,12.70
2023-05-16T04:28:52.810Z,12.70
2023-05-16T04:30:15.037Z,12.70
2023-05-16T04:31:37.272Z,12.70
2023-05-16T04:32:59.549Z,12.70
2023-05-16T04:34:23.041Z,12.70
2023-05-16T04:35:45.302Z,12.70
2023-05-16T04:37:08.465Z,12.70
2023-05-16T04:38:31.279Z,12.70
2023-05-16T04:39:54.514Z,12.70
2023-05-16T04:41:16.691Z,12.70
2023-05-16T04:42:38.937Z,12.70
2023-05-16T04:44:04.511Z,12.70
2023-05-16T04:45:26.789Z,12.70
2023-05-16T04:46:49.208Z,12.60
2023-05-16T04:48:12.230Z,12.70
2023-05-16T04:49:34.297Z,12.70
2023-05-16T04:50:56.439Z,12.60
2023-05-16T04:52:19.121Z,12.60
2023-05-16T04:53:41.155Z,12.50
2023-05-16T04:55:03.389Z,12.50
2023-05-16T04:56:26.798Z,12.50
2023-05-16T04:57:48.992Z,12.40
2023-05-16T04:59:11.124Z,12.40
2023-05-16T05:00:33.176Z,12.40
2023-05-16T05:01:55.364Z,12.40
2023-05-16T05:03:18.018Z,12.40
2023-05-16T05:04:40.521Z,12.40
2023-05-16T05:06:02.623Z,12.40
2023-05-16T05:07:28.061Z,12.40
2023-05-16T05:08:50.175Z,12.30
2023-05-16T05:10:12.529Z,12.30
2023-05-16T05:11:34.620Z,12.30
2023-05-16T05:12:57.144Z,12.30
2023-05-16T05:14:19.275Z,12.30
2023-05-16T05:15:41.335Z,12.30
2023-05-16T05:17:03.524Z,12.20
2023-05-16T05:18:25.797Z,12.20
2023-05-16T05:19:49.245Z,12.20
2023-05-16T05:21:11.409Z,12.20
2023-05-16T05:22:33.779Z,12.20
2023-05-16T05:23:56.016Z,12.20
2023-05-16T05:25:18.212Z,12.20
2023-05-16T05:26:41.141Z,12.20
2023-05-16T05:28:04.029Z,12.10
2023-05-16T05:29:26.192Z,12.10
2023-05-16T05:30:48.506Z,12.10
2023-05-16T05:32:10.860Z,12.10
2023-05-16T05:33:33.090Z,12.10
2023-05-16T05:34:55.888Z,12.10
2023-05-16T05:36:17.982Z,12.20
2023-05-16T05:37:40.193Z,12.10
2023-05-16T05:39:02.366Z,12.10
2023-05-16T05:40:24.401Z,12.00
2023-05-16T05:41:46.715Z,12.00
2023-05-16T05:43:08.765Z,12.00
2023-05-16T05:44:31.463Z,12.00
2023-05-16T05:45:53.903Z,12.00
2023-05-16T05:47:16.314Z,12.10
2023-05-16T05:48:38.440Z,12.10
2023-05-16T05:50:01.001Z,12.10
2023-05-16T05:51:23.245Z,12.10
2023-05-16T05:52:45.402Z,12.10
2023-05-16T05:54:07.852Z,12.10
2023-05-16T05:55:30.106Z,12.10
2023-05-16T05:56:52.238Z,12.10
2023-05-16T05:58:14.362Z,12.10
2023-05-16T05:59:36.439Z,12.10
2023-05-16T06:00:58.600Z,12.10
2023-05-16T06:02:20.898Z,12.20
2023-05-16T06:03:43.495Z,12.20
2023-05-16T06:05:06.068Z,12.10
2023-05-16T06:06:29.158Z,12.10
2023-05-16T06:07:51.341Z,12.10
2023-05-16T06:09:16.326Z,12.10
2023-05-16T06:10:38.452Z,12.10
2023-05-16T06:12:00.761Z,12.00
2023-05-16T06:13:22.848Z,11.90
2023-05-16T06:14:45.032Z,11.90
2023-05-16T06:16:09.479Z,11.90
2023-05-16T06:17:31.852Z,12.00
2023-05-16T06:18:54.107Z,12.00
2023-05-16T06:20:16.371Z,12.00
2023-05-16T06:21:38.642Z,11.90
2023-05-16T06:23:01.324Z,11.90
2023-05-16T06:24:23.431Z,11.90
2023-05-16T06:25:45.504Z,11.80
2023-05-16T06:27:07.630Z,11.80
2023-05-16T06:28:29.853Z,11.70
2023-05-16T06:29:51.983Z,11.70
2023-05-16T06:31:14.135Z,11.60
2023-05-16T06:32:36.370Z,11.60
2023-05-16T06:33:58.505Z,11.50
2023-05-16T06:35:20.650Z,11.50
2023-05-16T06:36:44.272Z,11.50
2023-05-16T06:38:06.454Z,11.50
2023-05-16T06:39:28.623Z,11.50
2023-05-16T06:40:50.844Z,11.50
2023-05-16T06:42:13.055Z,11.50
2023-05-16T06:43:35.582Z,11.50
2023-05-16T06:44:57.664Z,11.50
2023-05-16T06:46:19.847Z,11.50
2023-05-16T06:47:42.089Z,11.50
2023-05-16T06:49:04.798Z,11.50
2023-05-16T06:50:27.017Z,11.50
2023-05-16T06:51:49.214Z,11.50
2023-05-16T06:53:12.240Z,11.50
2023-05-16T06:54:35.134Z,11.50
2023-05-16T06:55:57.354Z,11.50
2023-05-16T06:57:19.541Z,11.60
2023-05-16T06:58:41.896Z,11.60
2023-05-16T07:00:04.656Z,11.50
2023-05-16T07:01:27.018Z,11.60
2023-05-16T07:02:49.296Z,11.60
2023-05-16T07:04:11.647Z,11.60
2023-05-16T07:05:33.973Z,11.60
2023-05-16T07:06:56.203Z,11.60
2023-05-16T07:08:18.390Z,11.60
2023-05-16T07:09:40.761Z,11.70
2023-05-16T07:11:02.975Z,11.70
2023-05-16T07:12:25.312Z,11.70
2023-05-16T07:13:47.462Z,11.80
2023-05-16T07:15:10.266Z,11.80
2023-05-16T07:16:32.781Z,11.80
2023-05-16T07:17:55.227Z,11.90
2023-05-16T07:19:17.470Z,11.90
2023-05-16T07:20:39.641Z,12.00
2023-05-16T07:22:01.903Z,12.00
2023-05-16T07:23:24.050Z,12.00
2023-05-16T07:24:46.343Z,11.90
2023-05-16T07:26:08.514Z,11.90
2023-05-16T07:27:32.103Z,11.80
2023-05-16T07:28:54.341Z,11.90
2023-05-16T07:30:16.779Z,11.90
2023-05-16T07:31:39.078Z,12.00
2023-05-16T07:33:01.317Z,11.90
2023-05-16T07:34:23.511Z,11.90
2023-05-16T07:35:45.733Z,11.90
2023-05-16T07:37:12.800Z,11.80
2023-05-16T07:38:34.993Z,11.80
2023-05-16T07:39:57.226Z,11.80
2023-05-16T07:41:19.405Z,11.90
2023-05-16T07:42:41.706Z,11.90
2023-05-16T07:44:04.008Z,12.00
2023-05-16T07:45:26.712Z,12.00
2023-05-16T07:46:49.181Z,12.10
2023-05-16T07:48:11.716Z,12.20
2023-05-16T07:49:33.898Z,12.20
2023-05-16T07:50:56.171Z,12.30
2023-05-16T07:52:18.302Z,12.20
2023-05-16T07:53:41.256Z,12.20
2023-05-16T07:55:04.062Z,12.20
2023-05-16T07:56:26.260Z,12.20
2023-05-16T07:57:49.561Z,12.20
2023-05-16T07:59:11.865Z,12.20
2023-05-16T08:00:34.239Z,12.20
2023-05-16T08:01:56.777Z,12.30
2023-05-16T08:03:19.372Z,12.30
2023-05-16T08:04:41.548Z,12.40
2023-05-16T08:06:04.084Z,12.50
2023-05-16T08:07:26.721Z,12.50
2023-05-16T08:08:48.940Z,12.60
2023-05-16T08:10:13.278Z,12.60
2023-05-16T08:11:36.328Z,12.60
2023-05-16T08:12:58.862Z,12.50
2023-05-16T08:14:21.301Z,12.50
2023-05-16T08:15:43.485Z,12.50
2023-05-16T08:17:05.993Z,12.50
2023-05-16T08:18:28.395Z,12.50
2023-05-16T08:19:50.686Z,12.60
2023-05-16T08:21:56.188Z,12.70
2023-05-16T08:23:18.989Z,12.70
2023-05-16T08:24:41.326Z,12.70
2023-05-16T08:26:03.603Z,12.70
2023-05-16T08:27:26.165Z,12.60
2023-05-16T08:28:48.729Z,12.70
2023-05-16T08:30:12.127Z,12.70
2023-05-16T08:31:34.598Z,12.80
2023-05-16T08:32:57.071Z,12.70
2023-05-16T08:34:19.297Z,12.70
2023-05-16T08:35:44.571Z,12.60
2023-05-16T08:37:06.913Z,12.60
2023-05-16T08:38:29.212Z,12.70
2023-05-16T08:39:51.593Z,12.80
2023-05-16T08:41:13.737Z,12.80
2023-05-16T08:42:36.628Z,12.90
2023-05-16T08:43:59.034Z,13.00
2023-05-16T08:45:23.011Z,13.20
2023-05-16T08:46:50.594Z,13.20
2023-05-16T08:48:14.688Z,13.20
2023-05-16T08:49:39.280Z,13.20
2023-05-16T08:51:03.118Z,13.10
2023-05-16T08:52:30.581Z,13.00
2023-05-16T08:54:03.909Z,13.00
2023-05-16T08:55:27.379Z,13.00
2023-05-16T08:56:50.762Z,13.00
2023-05-16T08:58:14.741Z,13.00
2023-05-16T08:59:37.822Z,13.00
2023-05-16T09:01:00.158Z,13.00
2023-05-16T09:02:22.837Z,13.10
2023-05-16T09:03:45.758Z,13.10
2023-05-16T09:05:18.210Z,13.10
2023-05-16T09:06:40.578Z,13.00
2023-05-16T09:08:02.899Z,12.90
2023-05-16T09:09:25.180Z,12.90
2023-05-16T09:10:47.573Z,12.90
2023-05-16T09:12:10.178Z,12.90
2023-05-16T09:13:32.756Z,13.00
2023-05-16T09:14:56.386Z,13.00
2023-05-16T09:16:19.986Z,13.00
2023-05-16T09:17:45.260Z,13.00
2023-05-16T09:19:07.796Z,13.10
2023-05-16T09:20:30.144Z,13.10
2023-05-16T09:21:52.512Z,13.10
2023-05-16T09:23:14.971Z,13.10
2023-05-16T09:24:41.808Z,13.10
2023-05-16T09:26:07.982Z,13.20
2023-05-16T09:27:31.879Z,13.10
2023-05-16T09:28:56.057Z,13.00
2023-05-16T09:30:29.224Z,13.00
2023-05-16T09:31:51.738Z,13.00
2023-05-16T09:33:14.983Z,12.90
2023-05-16T09:34:57.830Z,12.70
2023-05-16T09:36:20.100Z,12.60
2023-05-16T09:37:49.920Z,12.70
2023-05-16T09:39:15.980Z,12.80
2023-05-16T09:40:42.010Z,12.60
2023-05-16T09:42:04.544Z,12.60
2023-05-16T09:43:27.373Z,12.60
2023-05-16T09:44:51.781Z,12.70
2023-05-16T09:46:17.511Z,12.70
2023-05-16T09:47:46.224Z,12.80
2023-05-16T09:49:13.008Z,12.80
2023-05-16T09:50:37.001Z,12.80
2023-05-16T09:52:04.734Z,12.90
2023-05-16T09:53:38.074Z,12.90
2023-05-16T09:55:05.052Z,12.90
2023-05-16T09:56:28.481Z,12.80
2023-05-16T09:57:50.776Z,12.80
2023-05-16T09:59:12.993Z,12.80
2023-05-16T10:00:35.347Z,12.80
2023-05-16T10:02:00.980Z,12.80
2023-05-16T10:03:24.776Z,12.70
2023-05-16T10:04:47.047Z,12.60
2023-05-16T10:06:10.639Z,12.60
2023-05-16T10:07:34.513Z,12.50
2023-05-16T10:08:56.852Z,12.50
2023-05-16T10:10:19.238Z,12.60
2023-05-16T10:11:43.082Z,12.70
2023-05-16T10:13:07.639Z,12.70
2023-05-16T10:14:32.837Z,12.90
2023-05-16T10:15:59.811Z,13.10
2023-05-16T10:17:22.339Z,13.30
2023-05-16T10:18:45.662Z,13.40
2023-05-16T10:20:10.068Z,13.50
2023-05-16T10:21:33.378Z,13.60
2023-05-16T10:22:59.014Z,13.70
2023-05-16T10:24:29.311Z,13.70
2023-05-16T10:25:53.159Z,13.80
2023-05-16T10:27:17.376Z,13.90
2023-05-16T10:28:41.721Z,13.80
2023-05-16T10:30:05.805Z,13.60
2023-05-16T10:31:29.679Z,13.50
2023-05-16T10:32:53.369Z,13.50
2023-05-16T10:34:17.301Z,13.40
2023-05-16T10:35:40.048Z,13.40
2023-05-16T10:37:03.474Z,13.30
2023-05-16T10:38:27.337Z,13.30
2023-05-16T10:39:50.310Z,13.30
2023-05-16T10:41:13.198Z,13.30
2023-05-16T10:42:35.532Z,13.20
2023-05-16T10:43:59.222Z,13.10
2023-05-16T10:45:21.873Z,13.10
2023-05-16T10:46:44.651Z,13.10
2023-05-16T10:48:09.690Z,13.20
2023-05-16T10:49:32.191Z,13.30
2023-05-16T10:50:54.384Z,13.60
2023-05-16T10:52:18.122Z,13.80
2023-05-16T10:53:40.403Z,14.00
2023-05-16T10:55:04.830Z,14.00
2023-05-16T10:56:28.660Z,14.00
2023-05-16T10:57:50.970Z,14.10
2023-05-16T10:59:24.414Z,14.20
2023-05-16T11:00:47.931Z,14.20
2023-05-16T11:02:26.272Z,14.30
2023-05-16T11:03:57.859Z,14.40
2023-05-16T11:05:20.314Z,14.50
2023-05-16T11:06:42.412Z,14.50
2023-05-16T11:08:07.693Z,14.30
2023-05-16T11:09:30.002Z,14.00
2023-05-16T11:11:48.678Z,13.90
2023-05-16T11:13:11.788Z,13.90
2023-05-16T11:14:42.244Z,14.00
2023-05-16T11:16:48.145Z,14.10
2023-05-16T11:18:15.925Z,14.30
2023-05-16T11:19:52.186Z,14.50
2023-05-16T11:21:14.304Z,14.60
2023-05-16T11:22:42.721Z,14.80
2023-05-16T11:24:31.669Z,14.80
2023-05-16T11:25:58.620Z,14.90
2023-05-16T11:27:26.650Z,14.90
2023-05-16T11:28:53.914Z,15.00
2023-05-16T11:30:21.763Z,15.10
2023-05-16T11:31:44.017Z,15.10
2023-05-16T11:33:07.455Z,15.20
2023-05-16T11:34:30.565Z,15.20
2023-05-16T11:37:33.843Z,15.10
2023-05-16T11:39:07.129Z,15.10
2023-05-16T11:40:29.327Z,15.20
2023-05-16T11:41:52.053Z,15.10
2023-05-16T11:43:19.395Z,15.10
2023-05-16T11:44:41.647Z,15.10
2023-05-16T11:46:04.555Z,15.10
2023-05-16T11:47:27.988Z,14.90
2023-05-16T11:48:50.221Z,14.90
2023-05-16T11:50:21.165Z,15.00
2023-05-16T11:51:43.539Z,15.10
2023-05-16T11:53:06.313Z,15.20
2023-05-16T11:54:28.635Z,15.20
2023-05-16T11:55:55.729Z,15.30
2023-05-16T11:57:18.607Z,15.10
2023-05-16T11:58:42.142Z,15.00
2023-05-16T12:00:26.424Z,15.00
2023-05-16T12:01:49.302Z,15.00
2023-05-16T12:03:11.636Z,15.10
2023-05-16T12:04:34.155Z,15.10
2023-05-16T12:06:00.907Z,15.10
2023-05-16T12:07:28.563Z,15.20
2023-05-16T12:08:51.567Z,15.50
2023-05-16T12:10:16.098Z,15.60
2023-05-16T12:11:39.115Z,15.60
2023-05-16T12:13:02.543Z,15.50
2023-05-16T12:14:26.143Z,15.40
2023-05-16T12:15:48.965Z,15.30
2023-05-16T12:17:11.313Z,15.30
2023-05-16T12:18:36.043Z,15.50
2023-05-16T12:19:58.375Z,15.50
2023-05-16T12:21:20.707Z,15.60
2023-05-16T12:22:44.172Z,15.60
2023-05-16T12:24:11.648Z,15.70
2023-05-16T12:25:42.034Z,15.70
2023-05-16T12:27:04.230Z,15.70
2023-05-16T12:28:34.114Z,15.40
2023-05-16T12:29:58.879Z,15.20
2023-05-16T12:31:31.056Z,15.10
2023-05-16T12:33:09.458Z,15.00
2023-05-16T12:34:31.682Z,14.90
2023-05-16T12:35:55.034Z,15.00
2023-05-16T12:37:17.188Z,15.00
2023-05-16T12:38:39.573Z,15.00
2023-05-16T12:40:02.184Z,15.10
2023-05-16T12:41:24.287Z,15.20
2023-05-16T12:42:53.472Z,15.30
2023-05-16T12:44:17.804Z,15.40
2023-05-16T12:45:39.947Z,15.40
2023-05-16T12:47:02.856Z,15.50
2023-05-16T12:48:32.534Z,15.60
2023-05-16T12:49:54.776Z,15.70
2023-05-16T12:51:19.082Z,15.90
2023-05-16T12:52:49.394Z,16.00
2023-05-16T12:54:13.428Z,16.10
2023-05-16T12:55:37.167Z,16.00
2023-05-16T12:56:59.357Z,15.90
2023-05-16T12:58:22.145Z,15.80
2023-05-16T12:59:44.370Z,15.70
2023-05-16T13:01:06.695Z,15.70
2023-05-16T13:02:29.168Z,15.60
2023-05-16T13:03:51.621Z,15.50
2023-05-16T13:05:14.310Z,15.50
2023-05-16T13:06:56.464Z,15.60
2023-05-16T13:08:19.436Z,15.80
2023-05-16T13:09:41.823Z,16.00
2023-05-16T13:11:04.000Z,16.00
2023-05-16T13:12:27.271Z,16.10
2023-05-16T13:13:49.435Z,16.00
2023-05-16T13:15:12.587Z,16.00
2023-05-16T13:16:34.964Z,15.90
2023-05-16T13:17:57.393Z,15.70
2023-05-16T13:19:19.895Z,15.70
2023-05-16T13:20:42.286Z,15.80
2023-05-16T13:22:04.586Z,15.80
2023-05-16T13:23:27.124Z,16.00
2023-05-16T13:24:49.699Z,16.10
2023-05-16T13:26:11.933Z,16.30
2023-05-16T13:27:34.533Z,16.30
2023-05-16T13:28:56.752Z,16.50
2023-05-16T13:30:19.167Z,16.50
2023-05-16T13:31:41.364Z,16.70
2023-05-16T13:33:03.651Z,17.00
2023-05-16T13:34:25.947Z,17.10
2023-05-16T13:35:48.176Z,17.10
2023-05-16T13:37:10.457Z,17.10
2023-05-16T13:38:32.711Z,17.10
2023-05-16T13:39:55.917Z,17.10
2023-05-16T13:41:18.342Z,17.00
2023-05-16T13:42:41.100Z,16.80
2023-05-16T13:44:03.471Z,16.70
2023-05-16T13:45:26.315Z,16.70
2023-05-16T13:46:48.829Z,16.40
2023-05-16T13:48:11.497Z,16.50
2023-05-16T13:49:33.757Z,16.60
2023-05-16T13:50:56.008Z,16.50
2023-05-16T13:52:18.387Z,16.40
2023-05-16T13:53:40.541Z,16.40
2023-05-16T13:55:03.531Z,16.50
2023-05-16T13:56:26.085Z,16.40
2023-05-16T13:57:48.331Z,16.50
2023-05-16T13:59:14.289Z,16.60
2023-05-16T14:00:45.257Z,16.50
2023-05-16T14:02:08.284Z,16.50
2023-05-16T14:03:30.626Z,16.50
2023-05-16T14:04:53.685Z,16.50
2023-05-16T14:06:16.038Z,16.50
2023-05-16T14:07:38.497Z,16.50
2023-05-16T14:09:00.826Z,16.40
2023-05-16T14:10:23.796Z,16.40
2023-05-16T14:11:46.085Z,16.40
2023-05-16T14:13:08.319Z,16.40
2023-05-16T14:14:30.457Z,16.40
2023-05-16T14:15:52.730Z,16.50
2023-05-16T14:17:14.937Z,16.70
2023-05-16T14:18:37.282Z,16.80
2023-05-16T14:19:59.433Z,16.70
2023-05-16T14:21:21.907Z,16.70
2023-05-16T14:22:44.030Z,16.60
2023-05-16T14:24:07.232Z,16.60
2023-05-16T14:25:29.975Z,16.70
2023-05-16T14:26:58.153Z,16.70
2023-05-16T14:28:20.794Z,16.80
2023-05-16T14:29:43.369Z,16.80
2023-05-16T14:31:05.995Z,16.80
2023-05-16T14:32:28.241Z,16.80
2023-05-16T14:33:50.661Z,16.70
2023-05-16T14:35:12.816Z,16.70
2023-05-16T14:36:35.230Z,16.70
2023-05-16T14:37:57.414Z,16.80
2023-05-16T14:39:19.582Z,16.80
2023-05-16T14:40:41.873Z,17.00
2023-05-16T14:42:05.596Z,17.00
2023-05-16T14:43:29.877Z,17.10
2023-05-16T14:44:52.095Z,17.10
2023-05-16T14:46:14.673Z,17.20
2023-05-16T14:47:36.907Z,17.30
2023-05-16T14:48:59.154Z,17.10
2023-05-16T14:50:21.405Z,17.10
2023-05-16T14:51:45.400Z,17.10
2023-05-16T14:53:07.553Z,16.90
2023-05-16T14:54:29.629Z,16.70
2023-05-16T14:55:51.827Z,16.60
2023-05-16T14:57:14.174Z,16.40
2023-05-16T14:58:36.357Z,16.40
2023-05-16T14:59:58.739Z,16.30
2023-05-16T15:01:21.539Z,16.30
2023-05-16T15:02:44.779Z,16.20
2023-05-16T15:04:07.148Z,16.20
2023-05-16T15:05:29.875Z,16.20
2023-05-16T15:06:52.301Z,16.20
2023-05-16T15:08:14.586Z,16.20
2023-05-16T15:09:36.793Z,16.30
2023-05-16T15:10:59.200Z,16.30
2023-05-16T15:12:21.818Z,16.40
2023-05-16T15:13:43.944Z,16.30
2023-05-16T15:15:07.029Z,16.10
2023-05-16T15:16:31.246Z,15.90
2023-05-16T15:17:54.837Z,15.80
2023-05-16T15:19:17.199Z,15.70
2023-05-16T15:20:40.288Z,15.50
2023-05-16T15:22:03.298Z,15.50
2023-05-16T15:23:26.159Z,15.60
2023-05-16T15:24:48.616Z,15.70
2023-05-16T15:26:11.204Z,15.80
2023-05-16T15:27:33.660Z,16.00
2023-05-16T15:28:55.922Z,16.00
2023-05-16T15:30:18.183Z,16.00
2023-05-16T15:31:40.596Z,16.00
2023-05-16T15:33:02.917Z,15.70
2023-05-16T15:34:26.377Z,15.60
2023-05-16T15:35:48.561Z,15.40
2023-05-16T15:37:11.007Z,15.40
2023-05-16T15:38:33.328Z,15.30
2023-05-16T15:39:55.559Z,15.30
2023-05-16T15:41:32.100Z,15.40
2023-05-16T15:43:00.604Z,15.70
2023-05-16T15:44:22.786Z,15.70
2023-05-16T15:45:45.613Z,15.50
2023-05-16T15:47:08.069Z,15.40
2023-05-16T15:48:30.287Z,15.20
2023-05-16T15:49:52.552Z,15.00
2023-05-16T15:51:16.068Z,14.90
2023-05-16T15:52:38.488Z,14.80
2023-05-16T15:54:01.538Z,14.70
2023-05-16T15:55:23.780Z,14.70
2023-05-16T15:56:46.111Z,14.70
2023-05-16T15:58:08.276Z,14.80
2023-05-16T15:59:30.543Z,14.80
2023-05-16T16:00:55.078Z,14.90
2023-05-16T16:02:17.408Z,14.90
2023-05-16T16:03:39.880Z,14.90
2023-05-16T16:05:02.366Z,14.80
2023-05-16T16:06:24.581Z,14.70
2023-05-16T16:07:46.807Z,14.80
2023-05-16T16:09:09.834Z,14.90
2023-05-16T16:10:34.317Z,15.00
2023-05-16T16:11:56.696Z,15.00
2023-05-16T16:13:18.914Z,15.00
2023-05-16T16:14:41.475Z,15.00
2023-05-16T16:16:03.833Z,14.90
2023-05-16T16:17:26.344Z,14.80
2023-05-16T16:18:48.611Z,14.60
2023-05-16T16:20:11.270Z,14.50
2023-05-16T16:21:33.678Z,14.50
2023-05-16T16:22:56.056Z,14.50
2023-05-16T16:24:20.067Z,14.60
2023-05-16T16:25:42.459Z,14.50
2023-05-16T16:27:04.852Z,14.50
2023-05-16T16:28:27.126Z,14.40
2023-05-16T16:29:49.431Z,14.40
2023-05-16T16:31:11.902Z,14.30
2023-05-16T16:32:34.083Z,14.40
2023-05-16T16:33:56.259Z,14.60
2023-05-16T16:35:18.427Z,14.70
2023-05-16T16:36:40.983Z,14.90
2023-05-16T16:38:06.980Z,15.00
2023-05-16T16:39:32.757Z,15.10
2023-05-16T16:40:55.320Z,15.10
2023-05-16T16:42:17.517Z,14.90
2023-05-16T16:43:40.158Z,14.80
2023-05-16T16:45:02.474Z,14.60
2023-05-16T16:46:24.908Z,14.40
2023-05-16T16:47:47.200Z,14.30
2023-05-16T16:49:09.521Z,14.20
2023-05-16T16:50:32.754Z,14.10
2023-05-16T16:51:56.615Z,14.00
2023-05-16T16:53:18.993Z,14.10
2023-05-16T16:54:41.501Z,14.20
2023-05-16T16:56:03.722Z,14.20
2023-05-16T16:57:26.396Z,14.30
2023-05-16T16:58:48.654Z,14.30
2023-05-16T17:00:11.814Z,14.30
2023-05-16T17:01:35.017Z,14.30
2023-05-16T17:02:58.636Z,14.30
2023-05-16T17:04:21.424Z,14.30
2023-05-16T17:05:44.595Z,14.30
2023-05-16T17:07:07.665Z,14.30
2023-05-16T17:08:29.903Z,14.30
2023-05-16T17:09:53.871Z,14.30
2023-05-16T17:11:22.613Z,14.30
2023-05-16T17:12:49.307Z,14.30
2023-05-16T17:14:11.728Z,14.50
2023-05-16T17:15:34.074Z,14.60
2023-05-16T17:16:56.646Z,14.70
2023-05-16T17:18:21.010Z,14.80
2023-05-16T17:19:44.942Z,14.80
2023-05-16T17:21:09.269Z,14.90
2023-05-16T17:22:32.092Z,14.90
2023-05-16T17:23:55.183Z,14.90
2023-05-16T17:25:17.437Z,15.00
2023-05-16T17:26:39.692Z,15.00
2023-05-16T17:28:01.899Z,15.00
2023-05-16T17:29:24.070Z,15.00
2023-05-16T17:30:46.484Z,14.90
2023-05-16T17:32:08.719Z,14.90
2023-05-16T17:33:31.397Z,14.80
2023-05-16T17:34:54.482Z,14.70
2023-05-16T17:36:16.569Z,14.50
2023-05-16T17:37:39.179Z,14.30
2023-05-16T17:39:01.441Z,14.30
2023-05-16T17:40:24.187Z,14.20
2023-05-16T17:41:46.797Z,14.30
2023-05-16T17:43:08.959Z,14.30
2023-05-16T17:44:31.736Z,14.40
2023-05-16T17:45:53.786Z,14.60
2023-05-16T17:47:16.626Z,14.70
2023-05-16T17:48:39.587Z,14.70
2023-05-16T17:50:01.872Z,14.70
2023-05-16T17:51:24.259Z,14.70
2023-05-16T17:52:46.356Z,14.80
2023-05-16T17:54:09.003Z,14.80
2023-05-16T17:55:31.251Z,14.70
2023-05-16T17:56:53.690Z,14.70
2023-05-16T17:58:15.987Z,14.60
2023-05-16T17:59:38.505Z,14.50
2023-05-16T18:01:00.690Z,14.40